Patterson Springs, North Carolina
Current Conditions -  °F | °C
As of 9:35 AM on Tuesday 27 Jan 2015 (Local Time) from KEHO Reporting Station
Overcast Overcast  
Wind Chill: 29°   Ceiling: 4900
Heat Index: 34°   Visibility: 10mi
Dew Point: 24°   Wind: 6mph
Humidity: 67%   Direction: 280°W
Pressure: 29.85"   Gusts: NA
Location:  35.3693°N, 81.5992°W
Report Text: KEHO 271435Z AUTO 28005KT 10SM OVC049 01/M05 A2985 RMK AO2 T00101046
Loading
Personal Weather Stations






























Interactive Weather Map New forecast layout! Learn more

10-Day Weather Forecast

Advertisements
Track Severe Weather on mobile